Portada
METAR-TAF:

METAR-TAF

Aeroports :

Al-Kuwait, Kuwait

latitud: 29-13N, longitud: 047-59E, altitud: 55 m

Observació

L'informe es va fer fa 51 minuts, a les 19:00 UTC
Vent 4 kt del Sud/Sud-Est
Temperatura 31°C
Humitat 59%
Pressió 1003 hPa
Visibilitat: 7000 m
Cel clar

METAR: OKBK 291900Z 16004KT 7000 SKC 31/22 Q1003 NOSIG

Hora: 22:51 (19:51 UTC)

Pronòstic

L'informe es va fer fa 3 hores i 6 minuts, a les 16:45 UTC
Pronòstic vàlid del 29 a les 18 UTC al 30 a les 24 UTC
Vent 8 kt del Sud/Sud-Est
Visibilitat: 7000 m
Temporalment
l' 29 a les 18 UTC al 30 a les 08 UTC
Vent 3 kt amb direcció variable
Temporalment
l' 30 a les 02 UTC al 30 a les 09 UTC
Visibilitat: 3000 m
calitja

TAF: OKBK 291645Z 2918/3024 16008KT 7000 NSC TEMPO 2918/3008 VRB03KT TEMPO 3002/3009 3000 HZ

Observacions i pronòstics meteorològics de més de 4000 aeroports (METAR i TAF).

Les estacions disponibles són els punts grocs i vermells al mapa.

Posi el ratolí al punt desitjat per veure el nom de l'estació.

Feu clic per veure les observacions i els pronòstics meteorològics.

Per canviar el mapa: feu clic els botons verds amb una creu de color negre per apropar; al botó verd amb un guió per allunyar la imatge; o en les fletxes verdes per a mapes adjacents.


METAR-TAF: